sensor_id;sensor_type;location;lat;lon;timestamp;pressure;altitude;pressure_sealevel;temperature;humidity
64713;BME280;51140;45.340;5.980;2023-03-24T00:00:44;97584.19;;;11.49;100.00
64713;BME280;51140;45.340;5.980;2023-03-24T00:03:09;97589.31;;;11.50;100.00
64713;BME280;51140;45.340;5.980;2023-03-24T00:05:35;97603.19;;;11.51;100.00
64713;BME280;51140;45.340;5.980;2023-03-24T00:08:00;97615.88;;;11.43;100.00
64713;BME280;51140;45.340;5.980;2023-03-24T00:10:29;97662.97;;;11.54;100.00
64713;BME280;51140;45.340;5.980;2023-03-24T00:12:59;97683.13;;;11.52;100.00
64713;BME280;51140;45.340;5.980;2023-03-24T00:15:26;97701.91;;;11.57;100.00
64713;BME280;51140;45.340;5.980;2023-03-24T00:17:51;97713.66;;;11.64;100.00
64713;BME280;51140;45.340;5.980;2023-03-24T00:20:19;97715.78;;;11.72;100.00
64713;BME280;51140;45.340;5.980;2023-03-24T00:22:48;97719.09;;;11.61;100.00
64713;BME280;51140;45.340;5.980;2023-03-24T00:25:21;97687.28;;;11.54;100.00
64713;BME280;51140;45.340;5.980;2023-03-24T00:27:52;97675.63;;;11.60;100.00
64713;BME280;51140;45.340;5.980;2023-03-24T00:30:18;97521.00;;;11.58;100.00
64713;BME280;51140;45.340;5.980;2023-03-24T00:32:44;97471.75;;;11.53;100.00
64713;BME280;51140;45.340;5.980;2023-03-24T00:35:12;97442.19;;;11.80;100.00
64713;BME280;51140;45.340;5.980;2023-03-24T00:37:39;97439.00;;;11.62;100.00
64713;BME280;51140;45.340;5.980;2023-03-24T00:40:08;97430.00;;;11.41;100.00
64713;BME280;51140;45.340;5.980;2023-03-24T00:42:37;97428.06;;;11.70;100.00
64713;BME280;51140;45.340;5.980;2023-03-24T00:45:04;97485.97;;;11.62;100.00
64713;BME280;51140;45.340;5.980;2023-03-24T00:47:31;97515.34;;;11.51;100.00
64713;BME280;51140;45.340;5.980;2023-03-24T00:50:06;97513.41;;;11.68;100.00
64713;BME280;51140;45.340;5.980;2023-03-24T00:52:32;97504.34;;;11.73;100.00
64713;BME280;51140;45.340;5.980;2023-03-24T00:55:02;97494.16;;;11.83;100.00
64713;BME280;51140;45.340;5.980;2023-03-24T00:57:29;97491.03;;;11.90;100.00
64713;BME280;51140;45.340;5.980;2023-03-24T01:00:00;97492.91;;;11.88;100.00
64713;BME280;51140;45.340;5.980;2023-03-24T01:02:31;97500.53;;;11.91;100.00
64713;BME280;51140;45.340;5.980;2023-03-24T01:04:58;97504.66;;;11.69;100.00
64713;BME280;51140;45.340;5.980;2023-03-24T01:07:27;97503.22;;;11.38;100.00
64713;BME280;51140;45.340;5.980;2023-03-24T01:09:55;97476.53;;;11.59;100.00
64713;BME280;51140;45.340;5.980;2023-03-24T01:12:35;97487.91;;;11.58;100.00
64713;BME280;51140;45.340;5.980;2023-03-24T01:15:04;97494.78;;;11.47;100.00
64713;BME280;51140;45.340;5.980;2023-03-24T01:17:30;97502.28;;;11.39;100.00
64713;BME280;51140;45.340;5.980;2023-03-24T01:19:57;97499.38;;;11.56;100.00
64713;BME280;51140;45.340;5.980;2023-03-24T01:22:28;97500.47;;;11.66;100.00
64713;BME280;51140;45.340;5.980;2023-03-24T01:24:54;97500.00;;;11.47;100.00
64713;BME280;51140;45.340;5.980;2023-03-24T01:27:19;97497.06;;;11.39;100.00
64713;BME280;51140;45.340;5.980;2023-03-24T01:29:45;97512.63;;;11.53;100.00
64713;BME280;51140;45.340;5.980;2023-03-24T01:32:10;97511.69;;;11.54;100.00
64713;BME280;51140;45.340;5.980;2023-03-24T01:34:36;97518.22;;;11.61;100.00
64713;BME280;51140;45.340;5.980;2023-03-24T01:37:02;97518.22;;;11.61;100.00
64713;BME280;51140;45.340;5.980;2023-03-24T01:39:28;97534.72;;;11.74;100.00
64713;BME280;51140;45.340;5.980;2023-03-24T01:41:54;97521.56;;;11.63;100.00
64713;BME280;51140;45.340;5.980;2023-03-24T01:44:37;97534.59;;;11.63;100.00
64713;BME280;51140;45.340;5.980;2023-03-24T01:47:05;97533.66;;;11.64;100.00
64713;BME280;51140;45.340;5.980;2023-03-24T01:49:36;97565.97;;;11.88;100.00
64713;BME280;51140;45.340;5.980;2023-03-24T01:52:10;97556.06;;;11.93;100.00
64713;BME280;51140;45.340;5.980;2023-03-24T01:54:45;97587.47;;;11.79;100.00
64713;BME280;51140;45.340;5.980;2023-03-24T01:57:18;97599.28;;;11.85;100.00
64713;BME280;51140;45.340;5.980;2023-03-24T01:59:48;97599.22;;;11.72;100.00
64713;BME280;51140;45.340;5.980;2023-03-24T02:02:15;97592.72;;;11.65;100.00
64713;BME280;51140;45.340;5.980;2023-03-24T02:04:44;97599.13;;;11.74;100.00
64713;BME280;51140;45.340;5.980;2023-03-24T02:07:19;97602.22;;;11.66;100.00
64713;BME280;51140;45.340;5.980;2023-03-24T02:09:47;97597.34;;;11.74;100.00
64713;BME280;51140;45.340;5.980;2023-03-24T02:12:13;97596.41;;;11.75;100.00
64713;BME280;51140;45.340;5.980;2023-03-24T02:14:38;97594.63;;;11.49;100.00
64713;BME280;51140;45.340;5.980;2023-03-24T02:28:48;97688.66;;;11.33;100.00
64713;BME280;51140;45.340;5.980;2023-03-24T02:45:34;97762.00;;;11.55;100.00
64713;BME280;51140;45.340;5.980;2023-03-24T02:48:22;97761.38;;;11.66;100.00
64713;BME280;51140;45.340;5.980;2023-03-24T02:51:06;97752.06;;;11.62;100.00
64713;BME280;51140;45.340;5.980;2023-03-24T02:59:04;97754.94;;;11.57;100.00
64713;BME280;51140;45.340;5.980;2023-03-24T03:01:39;97766.31;;;11.42;100.00
64713;BME280;51140;45.340;5.980;2023-03-24T03:04:13;97757.66;;;11.27;100.00
64713;BME280;51140;45.340;5.980;2023-03-24T03:06:43;97761.53;;;11.20;100.00
64713;BME280;51140;45.340;5.980;2023-03-24T03:09:15;97761.09;;;11.14;100.00
64713;BME280;51140;45.340;5.980;2023-03-24T03:11:45;97770.50;;;11.30;100.00
64713;BME280;51140;45.340;5.980;2023-03-24T03:14:17;97786.69;;;11.07;100.00
64713;BME280;51140;45.340;5.980;2023-03-24T03:17:06;97811.09;;;11.20;100.00
64713;BME280;51140;45.340;5.980;2023-03-24T03:19:40;97807.03;;;11.30;100.00
64713;BME280;51140;45.340;5.980;2023-03-24T03:22:13;97818.13;;;11.63;100.00
64713;BME280;51140;45.340;5.980;2023-03-24T03:24:41;97829.13;;;11.68;100.00
64713;BME280;51140;45.340;5.980;2023-03-24T03:27:15;97830.69;;;11.56;100.00
64713;BME280;51140;45.340;5.980;2023-03-24T03:29:51;97846.03;;;11.60;100.00
64713;BME280;51140;45.340;5.980;2023-03-24T03:32:24;97837.66;;;11.55;100.00
64713;BME280;51140;45.340;5.980;2023-03-24T03:35:08;97823.44;;;11.61;100.00
64713;BME280;51140;45.340;5.980;2023-03-24T03:40:28;97839.84;;;11.63;100.00
64713;BME280;51140;45.340;5.980;2023-03-24T03:42:56;97857.78;;;11.53;100.00
64713;BME280;51140;45.340;5.980;2023-03-24T03:45:22;97886.03;;;11.75;100.00
64713;BME280;51140;45.340;5.980;2023-03-24T03:47:47;97874.84;;;11.59;100.00
64713;BME280;51140;45.340;5.980;2023-03-24T03:50:14;97882.09;;;11.54;100.00
64713;BME280;51140;45.340;5.980;2023-03-24T03:52:39;97842.44;;;11.63;100.00
64713;BME280;51140;45.340;5.980;2023-03-24T03:55:06;97834.31;;;11.53;100.00
64713;BME280;51140;45.340;5.980;2023-03-24T03:57:34;97862.53;;;11.47;100.00
64713;BME280;51140;45.340;5.980;2023-03-24T04:00:00;97880.31;;;11.26;100.00
64713;BME280;51140;45.340;5.980;2023-03-24T04:05:24;97884.59;;;11.41;100.00
64713;BME280;51140;45.340;5.980;2023-03-24T04:10:32;97916.34;;;11.64;100.00
64713;BME280;51140;45.340;5.980;2023-03-24T04:13:13;97859.00;;;11.48;100.00
64713;BME280;51140;45.340;5.980;2023-03-24T04:15:54;97869.53;;;11.60;100.00
64713;BME280;51140;45.340;5.980;2023-03-24T04:21:30;97937.19;;;11.64;100.00
64713;BME280;51140;45.340;5.980;2023-03-24T04:26:50;97990.19;;;11.80;100.00
64713;BME280;51140;45.340;5.980;2023-03-24T04:32:40;97993.16;;;11.58;100.00
64713;BME280;51140;45.340;5.980;2023-03-24T04:35:20;98017.19;;;11.49;100.00
64713;BME280;51140;45.340;5.980;2023-03-24T04:37:58;98055.91;;;11.41;100.00
64713;BME280;51140;45.340;5.980;2023-03-24T04:40:28;98097.72;;;11.39;100.00
64713;BME280;51140;45.340;5.980;2023-03-24T04:42:59;98132.09;;;11.14;100.00
64713;BME280;51140;45.340;5.980;2023-03-24T04:45:26;98156.50;;;11.13;100.00
64713;BME280;51140;45.340;5.980;2023-03-24T04:47:57;98165.88;;;11.33;100.00
64713;BME280;51140;45.340;5.980;2023-03-24T04:50:34;98159.13;;;11.45;100.00
64713;BME280;51140;45.340;5.980;2023-03-24T04:53:01;98161.22;;;11.54;100.00
64713;BME280;51140;45.340;5.980;2023-03-24T04:55:31;98134.47;;;11.66;100.00
64713;BME280;51140;45.340;5.980;2023-03-24T04:58:02;98113.16;;;11.89;100.00
64713;BME280;51140;45.340;5.980;2023-03-24T05:00:27;98093.84;;;12.08;100.00
64713;BME280;51140;45.340;5.980;2023-03-24T05:02:53;98025.28;;;12.18;100.00
64713;BME280;51140;45.340;5.980;2023-03-24T05:05:19;97966.25;;;12.16;100.00
64713;BME280;51140;45.340;5.980;2023-03-24T05:07:44;97900.75;;;12.33;100.00
64713;BME280;51140;45.340;5.980;2023-03-24T05:10:10;97830.88;;;12.37;100.00
64713;BME280;51140;45.340;5.980;2023-03-24T05:12:35;97807.09;;;12.41;100.00
64713;BME280;51140;45.340;5.980;2023-03-24T05:15:01;97783.63;;;12.27;100.00
64713;BME280;51140;45.340;5.980;2023-03-24T05:17:28;97782.94;;;12.38;100.00
64713;BME280;51140;45.340;5.980;2023-03-24T05:19:53;97785.44;;;12.39;100.00
64713;BME280;51140;45.340;5.980;2023-03-24T05:22:19;97768.56;;;12.18;100.00
64713;BME280;51140;45.340;5.980;2023-03-24T05:24:44;97757.28;;;12.17;100.00
64713;BME280;51140;45.340;5.980;2023-03-24T05:27:10;97780.13;;;12.14;100.00
64713;BME280;51140;45.340;5.980;2023-03-24T05:29:35;97808.81;;;11.87;100.00
64713;BME280;51140;45.340;5.980;2023-03-24T05:32:00;97826.03;;;11.75;100.00
64713;BME280;51140;45.340;5.980;2023-03-24T05:34:26;97843.47;;;11.75;100.00
64713;BME280;51140;45.340;5.980;2023-03-24T05:36:51;97868.81;;;11.73;100.00
64713;BME280;51140;45.340;5.980;2023-03-24T05:39:17;97906.00;;;11.62;100.00
64713;BME280;51140;45.340;5.980;2023-03-24T05:41:42;97927.19;;;11.56;100.00
64713;BME280;51140;45.340;5.980;2023-03-24T05:44:08;97958.94;;;11.48;100.00
64713;BME280;51140;45.340;5.980;2023-03-24T05:46:33;97967.88;;;11.44;100.00
64713;BME280;51140;45.340;5.980;2023-03-24T05:48:58;97983.22;;;11.35;100.00
64713;BME280;51140;45.340;5.980;2023-03-24T05:51:24;98042.63;;;11.29;100.00
64713;BME280;51140;45.340;5.980;2023-03-24T05:53:49;98068.13;;;11.24;100.00
64713;BME280;51140;45.340;5.980;2023-03-24T05:56:16;98085.38;;;11.27;100.00
64713;BME280;51140;45.340;5.980;2023-03-24T05:58:41;98118.09;;;11.33;100.00
64713;BME280;51140;45.340;5.980;2023-03-24T06:01:09;98136.34;;;11.33;100.00
64713;BME280;51140;45.340;5.980;2023-03-24T06:03:35;98156.88;;;11.39;100.00
64713;BME280;51140;45.340;5.980;2023-03-24T06:06:04;98168.41;;;11.35;100.00
64713;BME280;51140;45.340;5.980;2023-03-24T06:08:30;98178.00;;;11.34;100.00
64713;BME280;51140;45.340;5.980;2023-03-24T06:11:02;98207.00;;;11.44;100.00
64713;BME280;51140;45.340;5.980;2023-03-24T06:13:29;98222.91;;;11.39;100.00
64713;BME280;51140;45.340;5.980;2023-03-24T06:15:55;98241.16;;;11.39;100.00
64713;BME280;51140;45.340;5.980;2023-03-24T06:18:23;98250.09;;;11.35;100.00
64713;BME280;51140;45.340;5.980;2023-03-24T06:20:51;98284.84;;;11.36;100.00
64713;BME280;51140;45.340;5.980;2023-03-24T06:23:24;98305.22;;;11.45;100.00
64713;BME280;51140;45.340;5.980;2023-03-24T06:25:52;98338.00;;;11.66;100.00
64713;BME280;51140;45.340;5.980;2023-03-24T06:28:18;98366.53;;;11.86;100.00
64713;BME280;51140;45.340;5.980;2023-03-24T06:30:44;98366.97;;;11.77;100.00
64713;BME280;51140;45.340;5.980;2023-03-24T06:33:11;98378.06;;;11.82;100.00
64713;BME280;51140;45.340;5.980;2023-03-24T06:35:37;98393.06;;;11.95;100.00
64713;BME280;51140;45.340;5.980;2023-03-24T06:38:03;98385.09;;;12.13;100.00
64713;BME280;51140;45.340;5.980;2023-03-24T06:40:29;98275.22;;;12.32;100.00
64713;BME280;51140;45.340;5.980;2023-03-24T06:42:54;98365.78;;;12.32;100.00
64713;BME280;51140;45.340;5.980;2023-03-24T06:45:20;98401.19;;;12.06;100.00
64713;BME280;51140;45.340;5.980;2023-03-24T06:47:45;98417.00;;;12.03;100.00
64713;BME280;51140;45.340;5.980;2023-03-24T06:50:11;98413.50;;;11.86;100.00
64713;BME280;51140;45.340;5.980;2023-03-24T06:52:36;98427.16;;;11.91;100.00
64713;BME280;51140;45.340;5.980;2023-03-24T06:55:02;98437.09;;;12.01;100.00
64713;BME280;51140;45.340;5.980;2023-03-24T06:57:28;98434.28;;;12.21;100.00
64713;BME280;51140;45.340;5.980;2023-03-24T06:59:54;98441.06;;;12.57;100.00
64713;BME280;51140;45.340;5.980;2023-03-24T07:02:20;98415.75;;;12.73;100.00
64713;BME280;51140;45.340;5.980;2023-03-24T07:04:46;98392.34;;;12.40;100.00
64713;BME280;51140;45.340;5.980;2023-03-24T07:07:11;98377.69;;;12.21;100.00
64713;BME280;51140;45.340;5.980;2023-03-24T07:09:38;98348.44;;;12.15;100.00
64713;BME280;51140;45.340;5.980;2023-03-24T07:12:04;98317.00;;;12.01;100.00
64713;BME280;51140;45.340;5.980;2023-03-24T07:14:30;98324.78;;;12.02;100.00
64713;BME280;51140;45.340;5.980;2023-03-24T07:16:56;98342.97;;;12.19;100.00
64713;BME280;51140;45.340;5.980;2023-03-24T07:19:21;98372.97;;;12.28;100.00
64713;BME280;51140;45.340;5.980;2023-03-24T07:21:47;98391.06;;;12.15;100.00
64713;BME280;51140;45.340;5.980;2023-03-24T07:24:15;98392.94;;;12.13;100.00
64713;BME280;51140;45.340;5.980;2023-03-24T07:26:41;98411.88;;;12.33;100.00
64713;BME280;51140;45.340;5.980;2023-03-24T07:29:06;98422.66;;;12.27;100.00
64713;BME280;51140;45.340;5.980;2023-03-24T07:31:31;98432.28;;;12.26;100.00
64713;BME280;51140;45.340;5.980;2023-03-24T07:34:02;98468.84;;;12.26;100.00
64713;BME280;51140;45.340;5.980;2023-03-24T07:36:28;98487.88;;;12.12;100.00
64713;BME280;51140;45.340;5.980;2023-03-24T07:38:53;98517.81;;;12.38;100.00
64713;BME280;51140;45.340;5.980;2023-03-24T07:41:18;98544.38;;;12.95;100.00
64713;BME280;51140;45.340;5.980;2023-03-24T07:43:44;98534.34;;;13.03;100.00
64713;BME280;51140;45.340;5.980;2023-03-24T07:46:09;98512.22;;;13.09;100.00
64713;BME280;51140;45.340;5.980;2023-03-24T07:48:34;98502.53;;;13.87;100.00
64713;BME280;51140;45.340;5.980;2023-03-24T07:51:00;98465.22;;;14.40;100.00
64713;BME280;51140;45.340;5.980;2023-03-24T07:53:25;98362.88;;;14.15;100.00
64713;BME280;51140;45.340;5.980;2023-03-24T07:55:51;98266.00;;;14.27;100.00
64713;BME280;51140;45.340;5.980;2023-03-24T07:58:16;98191.97;;;14.11;100.00
64713;BME280;51140;45.340;5.980;2023-03-24T08:00:41;98080.53;;;13.26;100.00
64713;BME280;51140;45.340;5.980;2023-03-24T08:03:10;98043.66;;;12.88;100.00
64713;BME280;51140;45.340;5.980;2023-03-24T08:05:38;98032.75;;;12.81;100.00
64713;BME280;51140;45.340;5.980;2023-03-24T08:08:04;98049.09;;;12.57;100.00
64713;BME280;51140;45.340;5.980;2023-03-24T08:10:31;98120.78;;;12.52;100.00
64713;BME280;51140;45.340;5.980;2023-03-24T08:12:57;98195.25;;;12.60;100.00
64713;BME280;51140;45.340;5.980;2023-03-24T08:15:24;98276.28;;;12.74;100.00
64713;BME280;51140;45.340;5.980;2023-03-24T08:17:50;98386.03;;;13.21;100.00
64713;BME280;51140;45.340;5.980;2023-03-24T08:20:16;98429.19;;;13.28;100.00
64713;BME280;51140;45.340;5.980;2023-03-24T08:22:45;98447.38;;;13.00;100.00
64713;BME280;51140;45.340;5.980;2023-03-24T08:25:16;98470.38;;;13.09;100.00
64713;BME280;51140;45.340;5.980;2023-03-24T08:27:43;98499.25;;;13.83;100.00
64713;BME280;51140;45.340;5.980;2023-03-24T08:30:10;98474.47;;;14.74;100.00
64713;BME280;51140;45.340;5.980;2023-03-24T08:32:45;98366.50;;;15.59;100.00
64713;BME280;51140;45.340;5.980;2023-03-24T08:35:13;98219.44;;;17.47;100.00
64713;BME280;51140;45.340;5.980;2023-03-24T08:37:40;98001.72;;;17.37;100.00
64713;BME280;51140;45.340;5.980;2023-03-24T08:40:11;97819.28;;;17.04;100.00
64713;BME280;51140;45.340;5.980;2023-03-24T08:42:39;97660.19;;;17.48;100.00
64713;BME280;51140;45.340;5.980;2023-03-24T08:45:06;97521.31;;;17.50;100.00
64713;BME280;51140;45.340;5.980;2023-03-24T08:47:31;97363.72;;;18.39;100.00
64713;BME280;51140;45.340;5.980;2023-03-24T08:49:57;97071.72;;;18.85;100.00
64713;BME280;51140;45.340;5.980;2023-03-24T08:52:23;96925.81;;;19.01;100.00
64713;BME280;51140;45.340;5.980;2023-03-24T08:54:49;96848.94;;;18.96;100.00
64713;BME280;51140;45.340;5.980;2023-03-24T08:57:15;96796.00;;;18.97;100.00
64713;BME280;51140;45.340;5.980;2023-03-24T08:59:41;96714.00;;;19.23;100.00
64713;BME280;51140;45.340;5.980;2023-03-24T09:02:09;96634.00;;;21.37;100.00
64713;BME280;51140;45.340;5.980;2023-03-24T09:04:36;96551.47;;;20.14;100.00
64713;BME280;51140;45.340;5.980;2023-03-24T09:07:02;96478.75;;;21.57;100.00
64713;BME280;51140;45.340;5.980;2023-03-24T09:09:28;96280.38;;;27.92;100.00
64713;BME280;51140;45.340;5.980;2023-03-24T09:11:53;96454.25;;;29.84;100.00
64713;BME280;51140;45.340;5.980;2023-03-24T09:14:19;96763.13;;;27.72;100.00
64713;BME280;51140;45.340;5.980;2023-03-24T09:16:46;96673.56;;;24.88;100.00
64713;BME280;51140;45.340;5.980;2023-03-24T09:19:13;96730.91;;;24.17;100.00
64713;BME280;51140;45.340;5.980;2023-03-24T09:21:38;96796.66;;;22.90;100.00
64713;BME280;51140;45.340;5.980;2023-03-24T09:24:06;96691.38;;;22.03;100.00
64713;BME280;51140;45.340;5.980;2023-03-24T09:26:31;96622.75;;;20.68;100.00
64713;BME280;51140;45.340;5.980;2023-03-24T09:28:58;96603.94;;;20.48;100.00
64713;BME280;51140;45.340;5.980;2023-03-24T09:31:23;96621.59;;;19.70;100.00
64713;BME280;51140;45.340;5.980;2023-03-24T09:33:49;96610.16;;;18.27;100.00
64713;BME280;51140;45.340;5.980;2023-03-24T09:36:15;96610.63;;;17.13;100.00
64713;BME280;51140;45.340;5.980;2023-03-24T09:38:41;96605.88;;;16.39;100.00
64713;BME280;51140;45.340;5.980;2023-03-24T09:41:16;96583.41;;;16.01;100.00
64713;BME280;51140;45.340;5.980;2023-03-24T09:43:55;96588.41;;;15.77;100.00
64713;BME280;51140;45.340;5.980;2023-03-24T09:46:43;96562.22;;;15.85;100.00
64713;BME280;51140;45.340;5.980;2023-03-24T09:49:12;96556.91;;;15.77;100.00
64713;BME280;51140;45.340;5.980;2023-03-24T09:51:42;96557.28;;;15.82;100.00
64713;BME280;51140;45.340;5.980;2023-03-24T09:54:18;96581.06;;;15.62;100.00
64713;BME280;51140;45.340;5.980;2023-03-24T09:56:47;96589.03;;;15.71;100.00
64713;BME280;51140;45.340;5.980;2023-03-24T09:59:24;96589.00;;;16.68;100.00
64713;BME280;51140;45.340;5.980;2023-03-24T10:01:54;96555.94;;;17.67;100.00
64713;BME280;51140;45.340;5.980;2023-03-24T10:04:24;96516.44;;;18.08;100.00
64713;BME280;51140;45.340;5.980;2023-03-24T10:07:04;96528.50;;;17.36;100.00
64713;BME280;51140;45.340;5.980;2023-03-24T10:09:34;96536.91;;;17.39;100.00
64713;BME280;51140;45.340;5.980;2023-03-24T10:17:05;96521.66;;;20.20;100.00
64713;BME280;51140;45.340;5.980;2023-03-24T10:26:11;96645.25;;;19.95;100.00
64713;BME280;51140;45.340;5.980;2023-03-24T10:29:34;96678.56;;;18.53;100.00
64713;BME280;51140;45.340;5.980;2023-03-24T10:31:36;96611.34;;;17.66;100.00
64713;BME280;51140;45.340;5.980;2023-03-24T10:34:03;96575.09;;;17.60;100.00
64713;BME280;51140;45.340;5.980;2023-03-24T10:36:29;96568.34;;;17.57;100.00
64713;BME280;51140;45.340;5.980;2023-03-24T10:38:55;96569.41;;;17.22;100.00
64713;BME280;51140;45.340;5.980;2023-03-24T10:41:25;96549.34;;;17.71;100.00
64713;BME280;51140;45.340;5.980;2023-03-24T10:43:54;96573.84;;;16.61;100.00
64713;BME280;51140;45.340;5.980;2023-03-24T10:46:26;96543.81;;;17.40;100.00
64713;BME280;51140;45.340;5.980;2023-03-24T10:51:31;96561.09;;;17.51;100.00
64713;BME280;51140;45.340;5.980;2023-03-24T10:56:50;96526.28;;;18.30;100.00
64713;BME280;51140;45.340;5.980;2023-03-24T10:59:25;96523.00;;;18.44;100.00
64713;BME280;51140;45.340;5.980;2023-03-24T11:02:15;96534.22;;;17.98;100.00
64713;BME280;51140;45.340;5.980;2023-03-24T11:04:49;96533.63;;;17.53;100.00
64713;BME280;51140;45.340;5.980;2023-03-24T11:07:18;96542.72;;;17.17;100.00
64713;BME280;51140;45.340;5.980;2023-03-24T11:12:31;96533.44;;;17.39;100.00
64713;BME280;51140;45.340;5.980;2023-03-24T11:17:42;96540.75;;;17.19;100.00
64713;BME280;51140;45.340;5.980;2023-03-24T11:20:29;96525.47;;;17.14;100.00
64713;BME280;51140;45.340;5.980;2023-03-24T11:25:46;96533.91;;;17.26;100.00
64713;BME280;51140;45.340;5.980;2023-03-24T11:28:17;96534.84;;;17.17;100.00
64713;BME280;51140;45.340;5.980;2023-03-24T11:30:51;96532.63;;;17.38;100.00
64713;BME280;51140;45.340;5.980;2023-03-24T11:33:27;96521.44;;;17.52;100.00
64713;BME280;51140;45.340;5.980;2023-03-24T11:35:52;96530.31;;;17.35;100.00
64713;BME280;51140;45.340;5.980;2023-03-24T11:38:27;96521.94;;;17.48;100.00
64713;BME280;51140;45.340;5.980;2023-03-24T11:40:55;96527.09;;;17.07;100.00
64713;BME280;51140;45.340;5.980;2023-03-24T11:43:24;96531.50;;;16.99;100.00
64713;BME280;51140;45.340;5.980;2023-03-24T11:46:01;96532.09;;;16.84;100.00
64713;BME280;51140;45.340;5.980;2023-03-24T11:51:20;96533.72;;;16.59;100.00
64713;BME280;51140;45.340;5.980;2023-03-24T11:53:50;96547.47;;;16.27;100.00
64713;BME280;51140;45.340;5.980;2023-03-24T11:59:23;96551.72;;;16.46;100.00
64713;BME280;51140;45.340;5.980;2023-03-24T12:01:51;96561.47;;;16.54;100.00
64713;BME280;51140;45.340;5.980;2023-03-24T12:04:32;96538.19;;;16.85;100.00
64713;BME280;51140;45.340;5.980;2023-03-24T12:07:26;96564.00;;;16.89;100.00
64713;BME280;51140;45.340;5.980;2023-03-24T12:28:42;96711.22;;;15.83;100.00
64713;BME280;51140;45.340;5.980;2023-03-24T12:34:41;96814.50;;;15.74;100.00
64713;BME280;51140;45.340;5.980;2023-03-24T12:37:18;96849.63;;;15.44;100.00
64713;BME280;51140;45.340;5.980;2023-03-24T12:40:00;96887.59;;;15.78;100.00
64713;BME280;51140;45.340;5.980;2023-03-24T12:42:44;96901.47;;;15.98;100.00
64713;BME280;51140;45.340;5.980;2023-03-24T12:53:44;96875.59;;;15.18;100.00
64713;BME280;51140;45.340;5.980;2023-03-24T12:56:21;96886.09;;;14.98;100.00
64713;BME280;51140;45.340;5.980;2023-03-24T12:58:57;96908.44;;;15.02;100.00
64713;BME280;51140;45.340;5.980;2023-03-24T13:01:37;96949.56;;;14.92;100.00
64713;BME280;51140;45.340;5.980;2023-03-24T13:04:06;96978.00;;;14.87;100.00
64713;BME280;51140;45.340;5.980;2023-03-24T13:06:36;97035.34;;;14.81;100.00
64713;BME280;51140;45.340;5.980;2023-03-24T13:12:03;97190.75;;;14.30;100.00
64713;BME280;51140;45.340;5.980;2023-03-24T13:14:41;97275.72;;;13.94;100.00
64713;BME280;51140;45.340;5.980;2023-03-24T13:20:04;97457.97;;;14.86;100.00
64713;BME280;51140;45.340;5.980;2023-03-24T13:22:33;97360.44;;;14.92;100.00
64713;BME280;51140;45.340;5.980;2023-03-24T13:25:01;97337.75;;;15.44;100.00
64713;BME280;51140;45.340;5.980;2023-03-24T13:27:35;97347.53;;;15.42;100.00
64713;BME280;51140;45.340;5.980;2023-03-24T13:30:53;97358.13;;;15.30;100.00
64713;BME280;51140;45.340;5.980;2023-03-24T13:33:22;97346.09;;;14.64;100.00
64713;BME280;51140;45.340;5.980;2023-03-24T13:38:55;97342.53;;;16.11;100.00
64713;BME280;51140;45.340;5.980;2023-03-24T13:41:24;97274.56;;;16.46;100.00
64713;BME280;51140;45.340;5.980;2023-03-24T13:44:14;97167.47;;;16.77;100.00
64713;BME280;51140;45.340;5.980;2023-03-24T13:46:41;97130.91;;;16.65;100.00
64713;BME280;51140;45.340;5.980;2023-03-24T13:49:13;97074.56;;;16.86;100.00
64713;BME280;51140;45.340;5.980;2023-03-24T13:51:43;96950.16;;;16.76;100.00
64713;BME280;51140;45.340;5.980;2023-03-24T13:54:16;96767.72;;;17.39;100.00
64713;BME280;51140;45.340;5.980;2023-03-24T14:09:18;96487.44;;;18.24;100.00
64713;BME280;51140;45.340;5.980;2023-03-24T14:14:05;96470.00;;;17.99;100.00
64713;BME280;51140;45.340;5.980;2023-03-24T14:22:11;96443.94;;;18.28;100.00
64713;BME280;51140;45.340;5.980;2023-03-24T14:24:37;96459.28;;;17.92;100.00
64713;BME280;51140;45.340;5.980;2023-03-24T14:29:53;96520.78;;;17.50;100.00
64713;BME280;51140;45.340;5.980;2023-03-24T14:32:20;96551.78;;;17.65;100.00
64713;BME280;51140;45.340;5.980;2023-03-24T14:34:57;96548.19;;;17.74;100.00
64713;BME280;51140;45.340;5.980;2023-03-24T14:37:25;96560.75;;;17.38;100.00
64713;BME280;51140;45.340;5.980;2023-03-24T14:39:52;96587.69;;;16.89;100.00
64713;BME280;51140;45.340;5.980;2023-03-24T14:44:57;96648.16;;;16.10;100.00
64713;BME280;51140;45.340;5.980;2023-03-24T14:47:29;96680.69;;;15.99;100.00
64713;BME280;51140;45.340;5.980;2023-03-24T14:49:58;96713.56;;;15.86;100.00
64713;BME280;51140;45.340;5.980;2023-03-24T14:52:34;96731.25;;;15.84;100.00
64713;BME280;51140;45.340;5.980;2023-03-24T14:55:05;96722.91;;;16.34;100.00
64713;BME280;51140;45.340;5.980;2023-03-24T14:57:39;96695.88;;;16.95;100.00
64713;BME280;51140;45.340;5.980;2023-03-24T15:00:18;96675.88;;;17.02;100.00
64713;BME280;51140;45.340;5.980;2023-03-24T15:05:36;96644.97;;;16.60;100.00
64713;BME280;51140;45.340;5.980;2023-03-24T15:11:07;96696.44;;;15.82;100.00
64713;BME280;51140;45.340;5.980;2023-03-24T15:13:38;96725.56;;;15.61;100.00
64713;BME280;51140;45.340;5.980;2023-03-24T15:16:28;96750.91;;;15.33;100.00
64713;BME280;51140;45.340;5.980;2023-03-24T15:19:00;96763.78;;;15.26;100.00
64713;BME280;51140;45.340;5.980;2023-03-24T15:24:02;96793.06;;;15.22;100.00
64713;BME280;51140;45.340;5.980;2023-03-24T15:26:30;96782.41;;;15.33;100.00
64713;BME280;51140;45.340;5.980;2023-03-24T15:29:01;96796.72;;;15.48;100.00
64713;BME280;51140;45.340;5.980;2023-03-24T15:31:27;96771.34;;;15.29;100.00
64713;BME280;51140;45.340;5.980;2023-03-24T15:34:02;96787.28;;;14.99;100.00
64713;BME280;51140;45.340;5.980;2023-03-24T15:36:33;96807.00;;;15.03;100.00